Time;durP1;ratioP1;P1;durP2;ratioP2;P2;SDS_P1;SDS_P2;PMS_P1;PMS_P2;Temp;Humidity;BMP_temperature;BMP_pressure;BME280_temperature;BME280_humidity;BME280_pressure;Samples;Min_cycle;Max_cycle;Signal;HPM_P1;HPM_P2
2023/11/28 00:01:09;;;;;;;5.53;3.57;;;6.00;99.90;;;;;;4976329;28;20491;-75
2023/11/28 00:03:35;;;;;;;9.68;4.65;;;5.90;99.90;;;;;;4985452;28;20049;-74
2023/11/28 00:06:01;;;;;;;10.07;4.20;;;5.80;99.90;;;;;;4975436;28;20050;-73
2023/11/28 00:08:26;;;;;;;8.67;3.57;;;5.80;99.90;;;;;;4982822;28;20402;-73
2023/11/28 00:10:53;;;;;;;6.60;3.92;;;5.80;99.90;;;;;;4980513;28;20026;-72
2023/11/28 00:13:19;;;;;;;8.25;3.78;;;5.90;99.90;;;;;;4985053;28;20084;-73
2023/11/28 00:15:45;;;;;;;10.18;4.22;;;6.00;99.90;;;;;;4972541;28;20029;-73
2023/11/28 00:18:11;;;;;;;7.72;3.92;;;5.90;99.90;;;;;;4992662;28;20042;-73
2023/11/28 00:20:36;;;;;;;8.33;4.40;;;6.00;99.90;;;;;;4979616;28;20034;-74
2023/11/28 00:23:02;;;;;;;7.13;3.93;;;5.90;99.90;;;;;;4981375;28;20034;-73
2023/11/28 00:25:28;;;;;;;8.30;4.30;;;6.00;99.90;;;;;;4976757;28;20163;-72
2023/11/28 00:27:54;;;;;;;8.25;4.63;;;6.00;99.90;;;;;;4986358;28;20786;-73
2023/11/28 00:30:20;;;;;;;6.60;3.35;;;6.00;99.90;;;;;;4979661;28;20126;-73
2023/11/28 00:32:45;;;;;;;10.20;4.15;;;6.00;99.90;;;;;;4980473;28;20113;-73
2023/11/28 00:35:11;;;;;;;15.80;4.83;;;6.00;99.90;;;;;;4981408;28;20145;-72
2023/11/28 00:37:37;;;;;;;7.37;4.17;;;6.00;99.90;;;;;;4979591;28;20035;-75
2023/11/28 00:40:06;;;;;;;7.68;4.30;;;6.10;99.90;;;;;;4985005;28;20039;-75
2023/11/28 00:42:32;;;;;;;8.77;4.38;;;6.10;99.90;;;;;;4975118;28;20037;-75
2023/11/28 00:44:58;;;;;;;9.90;4.22;;;6.00;99.90;;;;;;4986412;28;20568;-76
2023/11/28 00:47:24;;;;;;;6.70;4.00;;;6.10;99.90;;;;;;4989119;28;20042;-75
2023/11/28 00:49:49;;;;;;;8.50;4.00;;;6.20;99.90;;;;;;4987889;28;20061;-76
2023/11/28 00:52:17;;;;;;;8.13;4.07;;;6.10;99.90;;;;;;4988783;28;20038;-74
2023/11/28 00:54:43;;;;;;;8.73;5.15;;;6.10;99.90;;;;;;4988460;28;20089;-76
2023/11/28 00:57:09;;;;;;;9.80;4.78;;;6.00;99.90;;;;;;4988982;28;20749;-75
2023/11/28 00:59:36;;;;;;;6.30;4.28;;;6.10;99.90;;;;;;4988347;28;20092;-75
2023/11/28 01:02:05;;;;;;;13.23;5.72;;;6.10;99.90;;;;;;4988396;28;20775;-73
2023/11/28 01:04:31;;;;;;;10.13;4.63;;;6.10;99.90;;;;;;4986872;28;20031;-75
2023/11/28 01:06:57;;;;;;;8.75;5.13;;;6.10;99.90;;;;;;4989069;28;20060;-75
2023/11/28 01:09:24;;;;;;;13.33;5.33;;;6.00;99.90;;;;;;4987607;28;20061;-75
2023/11/28 01:11:49;;;;;;;9.95;6.68;;;6.00;99.90;;;;;;4988868;28;20418;-74
2023/11/28 01:14:15;;;;;;;9.95;5.43;;;6.00;99.90;;;;;;4988839;28;20042;-75
2023/11/28 01:16:43;;;;;;;8.80;5.33;;;5.90;99.90;;;;;;4988758;28;20026;-75
2023/11/28 01:19:10;;;;;;;9.85;6.18;;;5.80;99.90;;;;;;4982595;28;20387;-74
2023/11/28 01:21:35;;;;;;;9.75;4.68;;;5.70;99.90;;;;;;4967986;28;20031;-75
2023/11/28 01:24:01;;;;;;;13.87;5.30;;;5.50;99.90;;;;;;4969255;28;20045;-75
2023/11/28 01:26:27;;;;;;;9.87;4.53;;;5.40;99.90;;;;;;4969306;28;20026;-75
2023/11/28 01:28:52;;;;;;;12.17;5.27;;;5.30;99.90;;;;;;4968810;28;20043;-75
2023/11/28 01:31:18;;;;;;;11.73;6.27;;;5.40;99.90;;;;;;4968834;28;20027;-75
2023/11/28 01:33:43;;;;;;;13.83;5.27;;;5.50;99.90;;;;;;4968525;28;20098;-75
2023/11/28 01:36:10;;;;;;;9.17;5.07;;;5.50;99.90;;;;;;4968529;28;20033;-75
2023/11/28 01:38:37;;;;;;;13.82;5.93;;;5.50;99.90;;;;;;4968140;28;20051;-75
2023/11/28 01:41:03;;;;;;;10.90;5.60;;;5.50;99.90;;;;;;4968302;28;20086;-76
2023/11/28 01:43:29;;;;;;;12.38;5.55;;;5.40;99.90;;;;;;4972155;28;20027;-75
2023/11/28 01:45:56;;;;;;;;;;;5.50;99.90;;;;;;4969526;28;20045;-72
2023/11/28 01:48:22;;;;;;;9.50;5.10;;;5.50;99.90;;;;;;4967678;28;19952;-73
2023/11/28 01:50:48;;;;;;;10.65;5.28;;;5.60;99.90;;;;;;4969302;28;20050;-75
2023/11/28 01:53:16;;;;;;;11.25;5.72;;;5.60;99.90;;;;;;4969135;28;20035;-72
2023/11/28 01:55:42;;;;;;;9.82;5.90;;;5.70;99.90;;;;;;4969153;28;20117;-73
2023/11/28 01:58:08;;;;;;;8.60;5.55;;;5.70;99.90;;;;;;4969453;28;20042;-73
2023/11/28 02:00:34;;;;;;;12.95;5.40;;;5.70;99.90;;;;;;4968782;28;20039;-73
2023/11/28 02:03:02;;;;;;;9.88;5.88;;;5.70;99.90;;;;;;4969078;28;20126;-73
2023/11/28 02:05:28;;;;;;;9.75;5.35;;;5.80;99.90;;;;;;4969104;28;20041;-73
2023/11/28 02:07:55;;;;;;;11.50;6.27;;;5.80;99.90;;;;;;4967372;28;20102;-73
2023/11/28 02:10:24;;;;;;;9.50;4.70;;;5.90;99.90;;;;;;4968379;28;20030;-73
2023/11/28 02:12:50;;;;;;;9.65;5.30;;;6.00;99.90;;;;;;4968202;28;20117;-73
2023/11/28 02:15:33;;;;;;;8.88;5.80;;;5.90;99.90;;;;;;4968686;28;20039;-72
2023/11/28 02:17:59;;;;;;;8.82;5.25;;;5.90;99.90;;;;;;4969125;28;20069;-72
2023/11/28 02:20:25;;;;;;;9.73;4.87;;;5.80;99.90;;;;;;4968993;28;20062;-75
2023/11/28 02:22:50;;;;;;;8.97;4.97;;;5.80;99.90;;;;;;4967841;28;20794;-76
2023/11/28 02:25:16;;;;;;;8.37;4.93;;;5.90;99.90;;;;;;4968900;28;20030;-75
2023/11/28 02:27:42;;;;;;;8.30;4.70;;;5.90;99.90;;;;;;4980455;28;20379;-76
2023/11/28 02:30:08;;;;;;;8.60;4.53;;;5.90;99.90;;;;;;4978020;28;20092;-73
2023/11/28 02:32:33;;;;;;;9.75;4.45;;;6.00;99.90;;;;;;4987474;28;20506;-76
2023/11/28 02:34:59;;;;;;;8.80;4.20;;;6.00;99.90;;;;;;4986519;28;20026;-76
2023/11/28 02:37:24;;;;;;;9.27;4.70;;;6.00;99.90;;;;;;4972905;28;20811;-73
2023/11/28 02:39:50;;;;;;;10.43;5.10;;;6.10;99.90;;;;;;4967290;28;20133;-76
2023/11/28 02:42:16;;;;;;;11.20;6.03;;;6.10;99.90;;;;;;4968554;28;20462;-76
2023/11/28 02:44:43;;;;;;;7.57;5.17;;;6.10;99.90;;;;;;4968377;28;20325;-77
2023/11/28 02:47:08;;;;;;;11.55;5.45;;;6.10;99.90;;;;;;4977338;28;20035;-76
2023/11/28 02:49:34;;;;;;;7.07;4.60;;;6.10;99.90;;;;;;4990612;28;20034;-75
2023/11/28 02:51:59;;;;;;;10.43;4.37;;;6.20;99.90;;;;;;4991311;28;20058;-77
2023/11/28 02:54:25;;;;;;;8.43;3.63;;;6.20;99.90;;;;;;4990858;28;20030;-77
2023/11/28 02:56:50;;;;;;;7.10;4.00;;;6.20;99.90;;;;;;4990292;28;20065;-77
2023/11/28 02:59:16;;;;;;;6.33;3.63;;;6.30;99.90;;;;;;4990060;28;20042;-75
2023/11/28 03:01:42;;;;;;;8.30;3.97;;;6.40;99.90;;;;;;4988683;28;20578;-72
2023/11/28 03:04:07;;;;;;;7.57;4.43;;;6.30;99.90;;;;;;4990661;28;20784;-75
2023/11/28 03:06:33;;;;;;;6.30;4.17;;;6.40;99.90;;;;;;4990499;28;20034;-72
2023/11/28 03:08:58;;;;;;;7.78;4.30;;;6.40;99.90;;;;;;4990610;28;20039;-76
2023/11/28 03:11:24;;;;;;;7.73;3.93;;;6.40;99.90;;;;;;4990395;28;20022;-76
2023/11/28 03:13:50;;;;;;;8.03;3.83;;;6.40;99.90;;;;;;4990281;28;20278;-75
2023/11/28 03:16:15;;;;;;;9.97;4.40;;;6.30;99.90;;;;;;4984945;28;20023;-72
2023/11/28 03:18:41;;;;;;;10.53;4.80;;;6.40;99.90;;;;;;4970817;28;20455;-73
2023/11/28 03:21:07;;;;;;;11.53;4.67;;;6.30;99.90;;;;;;4971162;28;20081;-76
2023/11/28 03:23:32;;;;;;;9.20;4.72;;;6.20;99.90;;;;;;4971114;28;20522;-74
2023/11/28 03:25:58;;;;;;;5.80;3.87;;;6.10;99.90;;;;;;4970845;28;20065;-71
2023/11/28 03:28:23;;;;;;;7.67;4.70;;;6.00;99.90;;;;;;4970847;28;20043;-74
2023/11/28 03:30:49;;;;;;;6.80;4.37;;;6.10;99.90;;;;;;4970744;28;20062;-73
2023/11/28 03:33:14;;;;;;;7.30;4.27;;;6.10;99.90;;;;;;4970604;28;20094;-75
2023/11/28 03:35:40;;;;;;;9.80;4.73;;;6.10;99.90;;;;;;4970606;28;20053;-75
2023/11/28 03:38:07;;;;;;;8.60;5.30;;;6.10;99.90;;;;;;4969079;28;20100;-74
2023/11/28 03:40:33;;;;;;;10.18;4.97;;;6.20;99.90;;;;;;4970598;28;20027;-76
2023/11/28 03:42:58;;;;;;;14.07;6.40;;;6.10;99.90;;;;;;4972946;28;20034;-76
2023/11/28 03:45:24;;;;;;;11.97;5.77;;;6.20;99.90;;;;;;4970487;28;20298;-77
2023/11/28 03:47:49;;;;;;;11.90;4.83;;;6.20;99.90;;;;;;4970579;28;20031;-76
2023/11/28 03:50:15;;;;;;;8.53;4.63;;;6.20;99.90;;;;;;4970387;28;20027;-76
2023/11/28 03:52:41;;;;;;;9.23;5.20;;;6.20;99.90;;;;;;4970569;28;20526;-77
2023/11/28 03:55:09;;;;;;;9.40;4.78;;;6.20;99.90;;;;;;4970109;28;20027;-72
2023/11/28 03:57:34;;;;;;;8.45;4.97;;;6.20;99.90;;;;;;4969643;28;20047;-73
2023/11/28 04:00:00;;;;;;;10.53;4.90;;;6.20;99.90;;;;;;4970931;28;20078;-73
2023/11/28 04:02:25;;;;;;;16.10;4.40;;;6.20;99.90;;;;;;4969216;28;20019;-72
2023/11/28 04:04:51;;;;;;;8.90;4.13;;;6.20;99.90;;;;;;4934256;28;1096786;-76
2023/11/28 04:07:17;;;;;;;7.15;4.22;;;6.20;99.90;;;;;;4971540;28;20067;-77
2023/11/28 04:09:43;;;;;;;9.37;4.40;;;6.30;99.90;;;;;;4971613;28;20058;-77
2023/11/28 04:12:08;;;;;;;7.88;4.10;;;6.30;99.90;;;;;;4970486;28;20034;-77
2023/11/28 04:14:34;;;;;;;6.77;4.50;;;6.30;99.90;;;;;;4970465;28;20043;-73
2023/11/28 04:16:59;;;;;;;9.80;4.67;;;6.30;99.90;;;;;;4970902;28;20118;-77
2023/11/28 04:19:25;;;;;;;5.20;3.17;;;6.30;99.90;;;;;;4970065;28;20046;-77
2023/11/28 04:21:51;;;;;;;5.67;2.90;;;6.40;99.90;;;;;;4989033;28;20414;-78
2023/11/28 04:24:16;;;;;;;4.93;3.10;;;6.50;99.90;;;;;;4990203;28;20066;-77
2023/11/28 04:26:42;;;;;;;3.87;2.00;;;6.70;99.90;;;;;;4989811;28;20038;-77
2023/11/28 04:29:08;;;;;;;3.80;2.00;;;6.90;99.90;;;;;;4990265;28;20027;-77
2023/11/28 04:31:35;;;;;;;3.97;1.90;;;7.10;99.90;;;;;;4990257;28;20265;-73
2023/11/28 04:34:01;;;;;;;8.02;2.65;;;7.10;99.90;;;;;;4990511;28;20326;-77
2023/11/28 04:36:27;;;;;;;3.97;2.20;;;7.10;99.90;;;;;;4990082;28;20073;-73
2023/11/28 04:38:52;;;;;;;3.00;1.80;;;7.10;99.90;;;;;;4989664;28;20293;-76
2023/11/28 04:41:18;;;;;;;4.20;1.90;;;7.10;99.90;;;;;;4979997;28;20023;-76
2023/11/28 04:43:44;;;;;;;3.63;1.80;;;7.10;99.90;;;;;;4977757;28;20023;-75
2023/11/28 04:46:10;;;;;;;4.38;2.22;;;7.00;99.90;;;;;;4974883;28;20446;-76
2023/11/28 04:48:35;;;;;;;5.17;2.40;;;7.00;99.90;;;;;;4982659;28;20089;-75
2023/11/28 04:51:01;;;;;;;7.10;2.53;;;7.00;99.90;;;;;;4983635;28;20023;-75
2023/11/28 04:53:27;;;;;;;3.67;2.55;;;6.90;99.90;;;;;;4971797;28;20034;-76
2023/11/28 04:55:52;;;;;;;6.22;3.10;;;6.90;99.90;;;;;;4976408;28;20035;-75
2023/11/28 04:58:18;;;;;;;5.73;2.70;;;6.90;99.90;;;;;;4974365;28;20132;-76
2023/11/28 05:00:44;;;;;;;5.77;2.80;;;6.90;99.90;;;;;;4982314;28;20030;-76
2023/11/28 05:03:10;;;;;;;5.45;2.63;;;6.80;99.90;;;;;;4980139;28;20038;-74
2023/11/28 05:05:36;;;;;;;5.25;2.72;;;6.80;99.90;;;;;;4979033;28;20042;-74
2023/11/28 05:08:01;;;;;;;6.53;2.90;;;6.80;99.90;;;;;;4979692;28;20058;-75
2023/11/28 05:10:27;;;;;;;5.83;2.80;;;6.80;99.90;;;;;;4977100;28;20506;-74
2023/11/28 05:12:54;;;;;;;5.57;2.85;;;6.80;99.90;;;;;;4979877;28;20030;-76
2023/11/28 05:15:19;;;;;;;10.07;2.65;;;6.80;99.90;;;;;;4982927;28;20390;-76
2023/11/28 05:17:45;;;;;;;6.73;2.57;;;6.80;99.90;;;;;;4978701;28;20509;-74
2023/11/28 05:20:12;;;;;;;4.87;2.27;;;6.80;99.90;;;;;;4974971;28;20067;-76
2023/11/28 05:22:37;;;;;;;5.75;2.50;;;6.80;99.90;;;;;;4981510;28;20077;-75
2023/11/28 05:25:03;;;;;;;6.00;2.80;;;6.70;99.90;;;;;;4980380;28;20438;-75
2023/11/28 05:27:29;;;;;;;7.97;2.40;;;6.70;99.90;;;;;;4975917;28;20037;-75
2023/11/28 05:29:54;;;;;;;5.27;2.63;;;6.70;99.90;;;;;;4978029;28;20100;-74
2023/11/28 05:32:20;;;;;;;6.20;2.53;;;6.70;99.90;;;;;;4978345;28;20506;-73
2023/11/28 05:34:46;;;;;;;8.80;2.43;;;6.80;99.90;;;;;;4978041;28;20507;-74
2023/11/28 05:37:11;;;;;;;4.70;2.10;;;6.70;99.90;;;;;;4973676;28;20483;-71
2023/11/28 05:39:37;;;;;;;3.47;2.10;;;6.80;99.90;;;;;;4975622;28;20050;-73
2023/11/28 05:42:03;;;;;;;6.73;2.63;;;6.70;99.90;;;;;;4978668;28;20054;-72
2023/11/28 05:44:28;;;;;;;3.67;1.80;;;6.70;99.90;;;;;;4979806;28;20070;-74
2023/11/28 05:46:54;;;;;;;3.90;2.30;;;6.70;99.90;;;;;;4995272;28;20048;-72
2023/11/28 05:49:20;;;;;;;8.10;2.38;;;6.80;99.90;;;;;;4989557;28;20065;-74
2023/11/28 05:51:45;;;;;;;3.50;2.23;;;6.80;99.90;;;;;;4977768;28;20023;-76
2023/11/28 05:54:11;;;;;;;6.23;2.10;;;6.80;99.90;;;;;;4978748;28;20110;-74
2023/11/28 05:56:37;;;;;;;4.50;2.23;;;6.70;99.90;;;;;;4974170;28;20026;-75
2023/11/28 05:59:03;;;;;;;6.10;3.37;;;6.80;99.90;;;;;;4977475;28;20642;-77
2023/11/28 06:01:28;;;;;;;4.67;1.77;;;6.80;99.90;;;;;;4978432;28;20292;-74
2023/11/28 06:03:54;;;;;;;3.33;1.73;;;6.80;99.90;;;;;;4994754;28;20297;-73
2023/11/28 06:06:20;;;;;;;2.90;1.53;;;6.80;99.90;;;;;;4975624;28;20030;-75
2023/11/28 06:08:45;;;;;;;3.78;1.63;;;6.90;99.90;;;;;;4982110;28;20038;-75
2023/11/28 06:11:11;;;;;;;2.57;1.77;;;6.90;99.90;;;;;;4978509;28;20043;-74
2023/11/28 06:13:37;;;;;;;4.38;2.22;;;6.90;99.90;;;;;;4979994;28;20073;-75
2023/11/28 06:16:06;;;;;;;8.90;1.87;;;6.90;99.90;;;;;;4974460;28;20038;-74
2023/11/28 06:18:31;;;;;;;2.03;1.38;;;7.00;99.90;;;;;;4980110;28;20045;-75
2023/11/28 06:20:57;;;;;;;4.07;2.08;;;7.00;99.90;;;;;;4976995;28;20805;-75
2023/11/28 06:23:23;;;;;;;2.07;1.37;;;7.00;99.90;;;;;;4974969;28;20538;-74
2023/11/28 06:25:49;;;;;;;4.70;1.58;;;7.00;99.90;;;;;;4976770;28;20026;-75
2023/11/28 06:28:16;;;;;;;4.97;2.30;;;7.00;99.90;;;;;;4976263;28;20042;-74
2023/11/28 06:30:42;;;;;;;7.55;2.95;;;7.00;99.90;;;;;;4977505;28;20106;-74
2023/11/28 06:33:07;;;;;;;2.97;2.05;;;6.90;99.90;;;;;;4973586;28;20094;-74
2023/11/28 06:35:34;;;;;;;11.02;2.95;;;6.90;99.90;;;;;;4973096;28;20026;-74
2023/11/28 06:38:02;;;;;;;;;;;6.80;99.90;;;;;;4979418;28;20034;-74
2023/11/28 06:40:28;;;;;;;8.63;2.70;;;6.80;99.90;;;;;;4975598;28;19972;-75
2023/11/28 06:42:57;;;;;;;4.50;2.60;;;6.70;99.90;;;;;;4972597;28;20034;-75
2023/11/28 06:45:22;;;;;;;3.92;2.80;;;6.70;99.90;;;;;;4972648;28;20562;-74
2023/11/28 06:47:48;;;;;;;8.80;4.17;;;6.70;99.90;;;;;;4977368;28;20093;-74
2023/11/28 06:50:14;;;;;;;6.30;3.50;;;6.70;99.90;;;;;;4974172;28;20034;-74
2023/11/28 06:52:39;;;;;;;5.80;2.90;;;6.70;99.90;;;;;;4976029;28;20026;-74
2023/11/28 06:55:06;;;;;;;9.77;3.03;;;6.60;99.90;;;;;;4976610;28;20067;-71
2023/11/28 06:57:33;;;;;;;5.13;3.22;;;6.60;99.90;;;;;;4975977;28;20022;-75
2023/11/28 06:59:58;;;;;;;7.45;3.90;;;6.60;99.90;;;;;;4975689;28;20747;-74
2023/11/28 07:02:24;;;;;;;6.10;3.70;;;6.60;99.90;;;;;;4974947;28;20187;-74
2023/11/28 07:04:50;;;;;;;7.13;4.17;;;6.60;99.90;;;;;;4973777;28;20114;-74
2023/11/28 07:07:15;;;;;;;8.37;4.40;;;6.60;99.90;;;;;;4981244;28;20030;-74
2023/11/28 07:09:43;;;;;;;6.53;4.40;;;6.60;99.90;;;;;;4977472;28;20470;-75
2023/11/28 07:12:09;;;;;;;12.60;4.65;;;6.60;99.90;;;;;;4978152;28;20475;-75
2023/11/28 07:14:35;;;;;;;6.93;4.30;;;6.60;99.90;;;;;;4974287;28;20358;-72
2023/11/28 07:17:01;;;;;;;9.10;4.40;;;6.60;99.90;;;;;;4978799;28;20046;-74
2023/11/28 07:19:27;;;;;;;13.43;4.65;;;6.60;99.90;;;;;;4974355;28;20433;-74
2023/11/28 07:21:53;;;;;;;8.70;4.32;;;6.60;99.90;;;;;;4974970;28;20037;-75
2023/11/28 07:24:19;;;;;;;6.10;3.63;;;6.60;99.90;;;;;;4975601;28;20538;-71
2023/11/28 07:26:45;;;;;;;8.52;4.07;;;6.50;99.90;;;;;;4974268;28;20037;-71
2023/11/28 07:29:12;;;;;;;6.82;4.60;;;6.40;99.90;;;;;;4978655;28;20035;-71
2023/11/28 07:31:38;;;;;;;7.65;4.38;;;6.20;99.90;;;;;;4979577;28;20041;-73
2023/11/28 07:34:04;;;;;;;11.35;5.07;;;6.10;99.90;;;;;;4978359;28;20539;-71
2023/11/28 07:36:30;;;;;;;13.50;5.70;;;6.00;99.90;;;;;;4980362;28;20036;-78
2023/11/28 07:38:56;;;;;;;8.23;5.00;;;6.00;99.90;;;;;;4980814;28;20047;-80
2023/11/28 07:41:22;;;;;;;10.52;4.88;;;5.90;99.90;;;;;;4981611;28;20065;-72
2023/11/28 07:43:48;;;;;;;10.73;5.72;;;6.00;99.90;;;;;;4992689;28;20038;-76
2023/11/28 07:46:15;;;;;;;9.60;5.55;;;6.10;99.90;;;;;;4978891;28;21097;-76
2023/11/28 07:48:42;;;;;;;11.63;4.88;;;6.20;99.90;;;;;;4993332;28;20113;-73
2023/11/28 07:51:09;;;;;;;13.65;5.82;;;6.30;99.90;;;;;;4980747;28;20033;-78
2023/11/28 07:53:35;;;;;;;8.75;5.45;;;6.30;99.90;;;;;;4978787;28;20085;-73
2023/11/28 07:56:03;;;;;;;8.68;5.75;;;6.20;99.90;;;;;;4980177;28;20045;-76
2023/11/28 07:58:29;;;;;;;16.67;5.85;;;6.30;99.90;;;;;;4974032;28;20687;-73
2023/11/28 08:00:54;;;;;;;10.85;4.95;;;7.00;99.90;;;;;;4979349;28;20061;-76
2023/11/28 08:03:20;;;;;;;9.23;5.77;;;7.70;99.90;;;;;;4979004;28;20073;-78
2023/11/28 08:05:46;;;;;;;11.43;5.73;;;6.90;99.90;;;;;;4977819;28;20034;-77
2023/11/28 08:08:11;;;;;;;10.23;6.27;;;6.50;99.90;;;;;;4979629;28;20042;-75
2023/11/28 08:10:37;;;;;;;8.07;4.77;;;6.30;99.90;;;;;;4979315;28;20038;-76
2023/11/28 08:13:02;;;;;;;7.57;4.53;;;6.20;99.90;;;;;;4981907;28;20093;-74
2023/11/28 08:15:28;;;;;;;11.10;4.50;;;6.30;99.90;;;;;;4981756;28;20088;-75
2023/11/28 08:17:53;;;;;;;5.67;4.03;;;6.40;99.90;;;;;;4977789;28;20030;-73
2023/11/28 08:20:19;;;;;;;7.97;5.37;;;6.20;99.90;;;;;;4977882;28;20046;-72
2023/11/28 08:22:45;;;;;;;11.00;5.10;;;6.20;99.90;;;;;;4978767;28;20031;-72
2023/11/28 08:25:10;;;;;;;8.17;4.83;;;6.10;99.90;;;;;;4980226;28;20034;-72
2023/11/28 08:27:37;;;;;;;10.40;5.07;;;6.30;99.90;;;;;;4977218;28;20038;-72
2023/11/28 08:30:04;;;;;;;12.65;6.15;;;6.20;99.90;;;;;;4980069;28;20031;-73
2023/11/28 08:32:30;;;;;;;13.30;6.40;;;6.20;99.90;;;;;;4978890;28;20114;-69
2023/11/28 08:34:56;;;;;;;8.70;5.07;;;6.30;99.90;;;;;;4978626;28;20109;-70
2023/11/28 08:37:21;;;;;;;10.57;5.77;;;6.30;99.90;;;;;;4978937;28;20340;-71
2023/11/28 08:39:48;;;;;;;9.07;5.80;;;;;;;;;;4980297;28;20066;-73
2023/11/28 08:42:14;;;;;;;6.40;4.20;;;;;;;;;;4983351;28;20093;-72
2023/11/28 08:44:42;;;;;;;7.43;4.05;;;;;;;;;;4981361;28;20474;-71
2023/11/28 08:47:08;;;;;;;8.20;4.50;;;;;;;;;;4980925;28;20621;-71
2023/11/28 08:49:34;;;;;;;9.32;4.45;;;;;;;;;;4982949;28;20102;-73
2023/11/28 08:52:00;;;;;;;10.23;4.88;;;;;;;;;;4975701;28;20041;-72
2023/11/28 08:54:26;;;;;;;16.77;5.97;;;;;;;;;;4979770;28;20481;-71
2023/11/28 08:56:52;;;;;;;15.23;5.05;;;;;;;;;;4978517;28;20046;-69
2023/11/28 08:59:19;;;;;;;15.00;4.95;;;6.90;99.90;;;;;;4975197;28;20357;-71
2023/11/28 09:01:45;;;;;;;12.50;5.15;;;;;;;;;;4976252;28;20077;-69
2023/11/28 09:04:11;;;;;;;9.10;4.95;;;;;;;;;;4980315;28;20387;-70
2023/11/28 09:06:37;;;;;;;13.73;4.53;;;;;;;;;;4978560;28;20030;-70
2023/11/28 09:09:03;;;;;;;8.88;3.88;;;;;;;;;;4980138;28;20026;-70
2023/11/28 09:11:29;;;;;;;13.77;4.63;;;;;;;;;;4975174;28;20454;-69
2023/11/28 09:13:55;;;;;;;7.53;4.07;;;;;;;;;;4981129;28;20027;-69
2023/11/28 09:16:21;;;;;;;13.75;4.50;;;;;;;;;;4978386;28;20058;-69
2023/11/28 09:18:47;;;;;;;5.80;3.90;;;;;;;;;;4980017;28;20109;-69
2023/11/28 09:21:13;;;;;;;8.13;4.22;;;;;;;;;;4980188;28;20082;-69
2023/11/28 09:23:40;;;;;;;4.85;3.65;;;;;;;;;;4975629;28;20101;-69
2023/11/28 09:26:06;;;;;;;7.93;4.20;;;;;;;;;;4983195;28;20263;-69
2023/11/28 09:28:37;;;;;;;5.93;3.45;;;;;;;;;;4985850;28;20034;-70
2023/11/28 09:31:03;;;;;;;7.05;3.53;;;;;;;;;;4979633;28;20085;-69
2023/11/28 09:33:30;;;;;;;12.27;4.72;;;;;;;;;;4982309;28;20081;-70
2023/11/28 09:35:56;;;;;;;5.20;3.45;;;;;;;;;;4982669;28;20562;-69
2023/11/28 09:38:22;;;;;;;5.10;3.55;;;;;;;;;;4977666;28;20038;-69
2023/11/28 09:40:49;;;;;;;6.05;4.05;;;;;;;;;;4979021;28;20393;-69
2023/11/28 09:43:15;;;;;;;6.80;2.67;;;;;;;;;;4982997;28;20113;-69
2023/11/28 09:45:41;;;;;;;4.22;2.47;;;;;;;;;;4979723;28;20558;-69
2023/11/28 09:48:13;;;;;;;3.50;2.17;;;;;;;;;;4979063;28;20059;-69
2023/11/28 09:50:40;;;;;;;3.75;2.20;;;;;;;;;;4983625;28;20034;-69
2023/11/28 09:53:05;;;;;;;;;;;;;;;;;;4980781;28;20753;-69
2023/11/28 09:55:32;;;;;;;3.33;1.67;;;;;;;;;;4982049;28;19920;-69
2023/11/28 09:58:03;;;;;;;4.78;1.73;;;;;;;;;;4984089;28;20032;-69
2023/11/28 10:00:33;;;;;;;2.53;1.75;;;;;;;;;;4979954;28;20111;-69
2023/11/28 10:03:01;;;;;;;4.72;2.00;;;;;;;;;;4983936;28;20105;-69
2023/11/28 10:05:27;;;;;;;5.93;2.15;;;;;;;;;;4977418;28;20041;-69
2023/11/28 10:07:54;;;;;;;4.18;1.80;;;;;;;;;;4981111;28;20034;-69
2023/11/28 10:10:24;;;;;;;3.25;1.88;;;;;;;;;;4979919;28;20082;-69
2023/11/28 10:12:50;;;;;;;3.05;2.00;;;;;;;;;;4979517;28;20383;-69
2023/11/28 10:15:17;;;;;;;3.15;2.10;;;;;;;;;;4982979;28;20030;-69
2023/11/28 10:17:44;;;;;;;3.45;2.13;;;;;;;;;;4980258;28;20082;-69
2023/11/28 10:20:10;;;;;;;5.30;1.95;;;;;;;;;;4976178;28;20039;-69
2023/11/28 10:22:38;;;;;;;;;;;;;;;;;;4981996;28;20046;-69
2023/11/28 10:25:09;;;;;;;3.65;2.25;;;;;;;;;;4980177;28;19910;-70
2023/11/28 10:27:42;;;;;;;4.13;2.17;;;;;;;;;;4973499;28;20023;-69
2023/11/28 10:30:11;;;;;;;2.97;1.98;;;;;;;;;;4981426;28;20060;-69
2023/11/28 10:32:38;;;;;;;4.03;2.28;;;;;;;;;;4978897;28;20037;-69
2023/11/28 10:35:05;;;;;;;9.00;2.20;;;;;;;;;;4976554;28;20035;-69
2023/11/28 10:37:35;;;;;;;5.22;2.70;;;;;;;;;;4980531;28;20042;-69
2023/11/28 10:40:04;;;;;;;4.97;2.00;;;;;;;;;;4976678;28;20049;-69
2023/11/28 10:42:30;;;;;;;2.67;1.73;;;;;;;;;;4979663;28;20049;-70
2023/11/28 10:44:58;;;;;;;2.83;1.80;;;;;;;;;;4975534;28;20034;-70
2023/11/28 10:47:31;;;;;;;6.57;2.10;;;;;;;;;;4980675;28;20031;-69
2023/11/28 10:49:57;;;;;;;3.25;1.70;;;;;;;;;;4984828;28;20502;-69
2023/11/28 10:52:28;;;;;;;3.30;1.95;;;;;;;;;;4978375;28;20030;-71
2023/11/28 10:55:02;;;;;;;4.38;1.83;;;;;;;;;;4982107;28;20066;-71
2023/11/28 10:57:28;;;;;;;3.95;1.98;;;;;;;;;;4981783;28;20073;-70
2023/11/28 11:00:01;;;;;;;2.80;2.00;;;;;;;;;;4984958;28;20038;-68
2023/11/28 11:02:27;;;;;;;6.43;1.60;;;;;;;;;;4980242;28;20491;-69
2023/11/28 11:04:53;;;;;;;4.32;1.70;;;;;;;;;;4982524;28;20030;-71
2023/11/28 11:07:20;;;;;;;3.15;1.63;;;;;;;;;;4983273;28;20027;-70
2023/11/28 11:09:47;;;;;;;2.58;1.75;;;;;;;;;;4982923;28;20034;-70
2023/11/28 11:12:13;;;;;;;3.38;2.10;;;;;;;;;;4989528;28;20577;-71
2023/11/28 11:14:40;;;;;;;;;;;;;;;;;;4982386;28;20072;-71
2023/11/28 11:17:12;;;;;;;3.97;1.63;;;;;;;;;;4987814;28;19914;-70
2023/11/28 11:19:39;;;;;;;4.18;2.08;;;;;;;;;;4985595;28;20040;-69
2023/11/28 11:22:09;;;;;;;3.92;1.90;;;;;;;;;;4984942;28;20482;-73
2023/11/28 11:24:36;;;;;;;4.55;2.50;;;;;;;;;;4986887;28;20053;-71
2023/11/28 11:27:02;;;;;;;4.10;1.98;;;;;;;;;;4983706;28;20066;-71
2023/11/28 11:29:28;;;;;;;3.88;2.05;;;;;;;;;;4985601;28;20193;-71
2023/11/28 11:31:58;;;;;;;7.07;2.50;;;;;;;;;;4987264;28;20542;-68
2023/11/28 11:34:34;;;;;;;5.03;2.22;;;;;;;;;;4984150;28;20517;-70
2023/11/28 11:37:12;;;;;;;4.03;2.17;;;;;;;;;;4984419;28;20499;-70
2023/11/28 11:39:39;;;;;;;3.15;2.40;;;;;;;;;;4983940;28;20133;-70
2023/11/28 11:42:09;;;;;;;3.58;2.20;;;;;;;;;;4985019;28;20042;-70
2023/11/28 11:44:42;;;;;;;4.18;2.22;;;;;;;;;;4985415;28;20030;-70
2023/11/28 11:47:21;;;;;;;3.13;2.22;;;;;;;;;;4987315;28;20038;-70
2023/11/28 11:49:48;;;;;;;6.88;3.05;;;;;;;;;;4982318;28;20031;-70
2023/11/28 11:52:16;;;;;;;4.82;2.60;;;;;;;;;;4986079;28;20038;-70
2023/11/28 11:54:43;;;;;;;4.25;2.80;;;;;;;;;;4984198;28;20091;-70
2023/11/28 11:57:09;;;;;;;7.38;3.03;;;;;;;;;;4982215;28;20113;-70
2023/11/28 11:59:36;;;;;;;4.82;3.10;;;;;;;;;;4985420;28;20031;-70
2023/11/28 12:02:02;;;;;;;5.68;2.83;;;;;;;;;;4982330;28;20030;-70
2023/11/28 12:04:28;;;;;;;7.95;3.30;;;;;;;;;;4987520;28;20035;-69
2023/11/28 12:07:02;;;;;;;4.47;2.85;;;;;;;;;;4985900;28;20023;-70
2023/11/28 12:09:28;;;;;;;3.78;2.50;;;;;;;;;;4984688;28;20065;-70
2023/11/28 12:11:54;;;;;;;6.70;2.70;;;;;;;;;;4981657;28;20034;-70
2023/11/28 12:14:20;;;;;;;5.65;2.88;;;8.00;99.90;;;;;;4980433;28;20042;-70
2023/11/28 12:16:45;;;;;;;5.72;2.97;;;8.80;99.90;;;;;;4981986;28;20046;-70
2023/11/28 12:19:11;;;;;;;2.70;2.07;;;8.90;99.90;;;;;;4985354;28;20153;-69
2023/11/28 12:21:38;;;;;;;2.90;2.00;;;9.10;99.90;;;;;;4985034;28;20910;-70
2023/11/28 12:24:03;;;;;;;5.50;1.80;;;9.00;99.90;;;;;;4980570;28;20030;-70
2023/11/28 12:26:29;;;;;;;4.10;2.00;;;8.90;99.90;;;;;;4984759;28;20085;-70
2023/11/28 12:28:55;;;;;;;4.80;2.07;;;8.90;99.90;;;;;;4982007;28;20035;-70
2023/11/28 12:31:20;;;;;;;4.67;2.43;;;8.80;99.90;;;;;;4984050;28;20130;-71
2023/11/28 12:33:46;;;;;;;7.43;2.57;;;8.80;99.90;;;;;;4982834;28;20057;-71
2023/11/28 12:36:13;;;;;;;4.73;2.30;;;8.50;99.90;;;;;;4983500;28;20282;-72
2023/11/28 12:38:41;;;;;;;8.13;3.33;;;8.40;99.90;;;;;;4983355;28;20042;-70
2023/11/28 12:41:07;;;;;;;3.55;1.90;;;8.40;99.90;;;;;;4983811;28;20026;-71
2023/11/28 12:43:36;;;;;;;3.20;1.77;;;8.50;99.90;;;;;;4981763;28;20042;-68
2023/11/28 12:46:01;;;;;;;3.53;1.60;;;8.60;99.90;;;;;;4983740;28;20343;-69
2023/11/28 12:48:27;;;;;;;2.35;1.17;;;8.80;99.90;;;;;;4984812;28;20023;-69
2023/11/28 12:50:53;;;;;;;4.20;1.40;;;8.70;99.90;;;;;;4981699;28;20165;-71
2023/11/28 12:53:19;;;;;;;2.87;1.37;;;8.70;99.90;;;;;;4985546;28;20080;-69
2023/11/28 12:55:45;;;;;;;;;;;8.50;99.90;;;;;;4983596;28;20053;-70
2023/11/28 12:58:11;;;;;;;11.38;1.30;;;8.20;99.90;;;;;;4982479;28;20385;-69
2023/11/28 13:00:37;;;;;;;3.70;1.20;;;8.00;99.90;;;;;;4981274;28;20034;-68
2023/11/28 13:03:02;;;;;;;2.00;1.27;;;8.00;99.90;;;;;;4982149;28;20103;-69
2023/11/28 13:05:29;;;;;;;2.20;1.27;;;8.00;99.90;;;;;;4979947;28;20425;-72
2023/11/28 13:07:55;;;;;;;1.83;1.08;;;8.00;99.90;;;;;;4978453;28;20038;-69
2023/11/28 13:10:21;;;;;;;1.52;1.00;;;7.90;99.90;;;;;;4981757;28;20022;-71
2023/11/28 13:12:46;;;;;;;1.87;1.10;;;7.70;99.90;;;;;;4981409;28;20384;-72
2023/11/28 13:15:15;;;;;;;3.07;1.30;;;7.60;99.90;;;;;;4982266;28;20038;-72
2023/11/28 13:17:41;;;;;;;3.63;1.30;;;7.60;99.90;;;;;;4985758;28;20398;-72